Time;durP1;ratioP1;P1;durP2;ratioP2;P2;SDS_P1;SDS_P2;PMS_P1;PMS_P2;Temp;Humidity;BMP_temperature;BMP_pressure;BME280_temperature;BME280_humidity;BME280_pressure;Samples;Min_cycle;Max_cycle;Signal;HPM_P1;HPM_P2
2022/08/29 00:00:27;;;;;;;4.80;2.80;;;17.20;98.00;;;;;;5055037;28;20458;-68
2022/08/29 00:02:58;;;;;;;7.00;3.40;;;17.10;98.00;;;;;;5037281;28;20453;-67
2022/08/29 00:05:29;;;;;;;3.73;2.50;;;17.10;98.00;;;;;;5055041;28;20613;-68
2022/08/29 00:07:58;;;;;;;4.73;2.60;;;17.00;98.00;;;;;;5054804;28;20461;-67
2022/08/29 00:10:26;;;;;;;4.20;2.73;;;17.00;98.00;;;;;;5055099;28;20466;-68
2022/08/29 00:12:53;;;;;;;3.17;2.33;;;17.10;98.00;;;;;;5054775;28;20488;-67
2022/08/29 00:15:21;;;;;;;11.10;3.40;;;17.30;98.00;;;;;;5054664;28;20453;-68
2022/08/29 00:17:48;;;;;;;4.20;2.70;;;17.50;98.00;;;;;;5054769;28;20457;-68
2022/08/29 00:20:19;;;;;;;3.80;2.67;;;17.30;98.00;;;;;;5036677;28;20469;-68
2022/08/29 00:22:47;;;;;;;3.40;2.40;;;17.40;98.00;;;;;;5054786;28;21104;-68
2022/08/29 00:25:16;;;;;;;3.93;2.57;;;17.40;98.00;;;;;;5054739;28;20477;-67
2022/08/29 00:27:43;;;;;;;4.57;2.90;;;17.30;98.00;;;;;;5054727;28;20454;-68
2022/08/29 00:30:14;;;;;;;5.47;2.77;;;17.20;98.00;;;;;;5054457;28;20462;-68
2022/08/29 00:32:42;;;;;;;5.20;3.20;;;17.10;98.00;;;;;;5054501;28;20998;-67
2022/08/29 00:35:12;;;;;;;4.87;2.93;;;17.10;98.00;;;;;;5054553;28;20461;-68
2022/08/29 00:37:39;;;;;;;4.13;2.60;;;17.00;98.00;;;;;;5054548;28;20480;-68
2022/08/29 00:40:09;;;;;;;4.33;2.57;;;17.00;98.00;;;;;;5054300;28;20454;-68
2022/08/29 00:42:39;;;;;;;6.10;3.17;;;17.10;98.00;;;;;;5054575;28;20450;-68
2022/08/29 00:45:08;;;;;;;5.20;2.97;;;17.10;98.00;;;;;;5054446;28;20800;-67
2022/08/29 00:47:40;;;;;;;4.90;2.90;;;17.00;98.00;;;;;;5054344;28;20473;-67
2022/08/29 00:50:11;;;;;;;4.93;2.80;;;17.00;98.00;;;;;;5054499;28;20458;-68
2022/08/29 00:52:42;;;;;;;5.30;2.90;;;17.00;98.00;;;;;;5054088;28;20873;-68
2022/08/29 00:55:12;;;;;;;4.70;2.63;;;17.00;98.00;;;;;;5054453;28;20462;-68
2022/08/29 00:57:45;;;;;;;5.00;3.10;;;16.80;98.00;;;;;;5053786;28;20461;-68
2022/08/29 01:00:14;;;;;;;4.83;2.93;;;16.90;98.00;;;;;;5053701;28;20450;-68
2022/08/29 01:02:43;;;;;;;3.77;2.40;;;16.80;98.00;;;;;;5054145;28;20453;-68
2022/08/29 01:05:14;;;;;;;3.43;2.60;;;16.70;98.00;;;;;;5053654;28;20466;-67
2022/08/29 01:07:41;;;;;;;4.40;3.00;;;16.80;98.00;;;;;;5053965;28;20540;-68
2022/08/29 01:12:14;;;;;;;6.60;2.97;;;16.70;98.00;;;;;;5053737;28;20469;-67
2022/08/29 01:12:57;;;;;;;5.70;3.10;;;16.70;98.00;;;;;;5053323;28;21232;-67
2022/08/29 01:15:26;;;;;;;6.47;3.30;;;16.60;98.00;;;;;;5053619;28;20470;-68
2022/08/29 01:17:55;;;;;;;4.90;3.00;;;16.50;98.00;;;;;;5053674;28;20450;-67
2022/08/29 01:20:33;;;;;;;4.33;2.67;;;16.50;98.00;;;;;;5053497;28;20450;-68
2022/08/29 01:23:09;;;;;;;9.13;3.17;;;16.60;98.00;;;;;;5053539;28;20453;-67
2022/08/29 01:25:44;;;;;;;4.20;2.73;;;16.70;98.00;;;;;;5053546;28;20471;-67
2022/08/29 01:28:15;;;;;;;5.50;2.77;;;16.80;98.00;;;;;;5053385;28;20464;-68
2022/08/29 01:30:58;;;;;;;6.47;2.83;;;16.80;98.00;;;;;;5053346;28;20446;-67
2022/08/29 01:33:35;;;;;;;3.77;2.70;;;16.90;98.00;;;;;;5053027;28;20500;-68
2022/08/29 01:36:03;;;;;;;3.80;2.70;;;16.70;98.00;;;;;;5053330;28;20963;-68
2022/08/29 01:38:31;;;;;;;2.90;2.40;;;16.60;98.00;;;;;;5053253;28;20458;-68
2022/08/29 01:41:00;;;;;;;3.40;2.63;;;16.70;98.00;;;;;;5053315;28;21034;-68
2022/08/29 01:43:29;;;;;;;3.77;2.60;;;16.60;98.00;;;;;;5053097;28;20450;-67
2022/08/29 01:45:59;;;;;;;4.50;2.77;;;16.50;98.00;;;;;;5035678;28;20943;-67
2022/08/29 01:48:27;;;;;;;3.90;3.03;;;16.30;98.00;;;;;;5036081;28;20853;-67
2022/08/29 01:50:54;;;;;;;4.80;2.60;;;16.30;98.00;;;;;;5052680;28;20819;-68
2022/08/29 01:53:21;;;;;;;4.80;2.70;;;16.20;98.00;;;;;;5053167;28;20486;-67
2022/08/29 01:55:48;;;;;;;4.70;2.83;;;16.20;98.00;;;;;;5053047;28;20458;-67
2022/08/29 01:58:17;;;;;;;5.27;2.93;;;16.30;98.00;;;;;;5053004;28;20458;-67
2022/08/29 02:00:44;;;;;;;3.10;2.60;;;16.20;98.00;;;;;;5053071;28;20477;-68
2022/08/29 02:03:12;;;;;;;3.30;2.50;;;16.20;98.00;;;;;;5053140;28;20454;-67
2022/08/29 02:05:39;;;;;;;6.83;2.83;;;16.10;98.00;;;;;;5035126;28;20453;-68
2022/08/29 02:08:06;;;;;;;4.67;2.87;;;16.20;98.00;;;;;;5052903;28;20457;-68
2022/08/29 02:10:35;;;;;;;4.57;2.90;;;16.10;98.00;;;;;;5034718;28;20587;-67
2022/08/29 02:13:02;;;;;;;4.60;2.77;;;16.10;98.00;;;;;;5051905;28;21010;-67
2022/08/29 02:15:31;;;;;;;3.10;2.50;;;16.10;98.00;;;;;;5052439;28;20461;-67
2022/08/29 02:17:58;;;;;;;3.50;2.80;;;16.00;98.00;;;;;;5052265;28;20466;-67
2022/08/29 02:20:26;;;;;;;4.63;2.60;;;16.20;98.00;;;;;;5052420;28;20456;-68
2022/08/29 02:22:54;;;;;;;4.93;2.73;;;16.30;98.00;;;;;;5052340;28;20450;-68
2022/08/29 02:28:06;;;;;;;3.60;2.50;;;16.10;98.00;;;;;;5052433;28;20445;-67
2022/08/29 02:30:35;;;;;;;5.40;3.17;;;16.00;98.00;;;;;;5052160;28;20469;-68
2022/08/29 02:33:02;;;;;;;4.70;2.87;;;16.00;98.00;;;;;;5051919;28;21003;-67
2022/08/29 02:35:29;;;;;;;3.40;2.60;;;16.00;98.00;;;;;;5052062;28;20485;-67
2022/08/29 02:37:57;;;;;;;4.77;2.80;;;16.00;98.00;;;;;;5052036;28;20454;-67
2022/08/29 02:40:25;;;;;;;5.90;3.10;;;15.90;98.00;;;;;;5052043;28;20483;-68
2022/08/29 02:42:53;;;;;;;5.50;3.00;;;15.90;98.00;;;;;;5052056;28;20454;-68
2022/08/29 02:45:20;;;;;;;4.03;2.87;;;15.90;98.00;;;;;;5051983;28;20516;-68
2022/08/29 02:47:50;;;;;;;5.13;2.70;;;15.90;98.00;;;;;;5051962;28;20465;-67
2022/08/29 02:50:17;;;;;;;4.57;3.00;;;15.90;98.00;;;;;;5051878;28;21112;-68
2022/08/29 02:52:45;;;;;;;6.40;3.03;;;15.90;98.00;;;;;;5051785;28;20485;-67
2022/08/29 02:55:15;;;;;;;4.20;2.90;;;15.80;98.00;;;;;;5051870;28;20453;-68
2022/08/29 02:57:43;;;;;;;4.57;2.40;;;15.80;98.00;;;;;;5034259;28;21098;-67
2022/08/29 03:00:14;;;;;;;3.83;2.70;;;15.70;98.00;;;;;;5051707;28;20450;-67
2022/08/29 03:02:42;;;;;;;2.63;1.93;;;15.80;98.00;;;;;;5051592;28;20855;-67
2022/08/29 03:05:15;;;;;;;7.53;2.77;;;15.90;98.00;;;;;;5033998;28;20450;-67
2022/08/29 03:07:43;;;;;;;5.57;2.67;;;15.90;98.00;;;;;;5051948;28;20465;-67
2022/08/29 03:10:10;;;;;;;3.60;2.37;;;15.90;98.00;;;;;;5052009;28;20457;-67
2022/08/29 03:12:38;;;;;;;5.77;2.20;;;16.00;98.00;;;;;;5051874;28;20468;-67
2022/08/29 03:15:07;;;;;;;3.30;2.40;;;16.00;98.00;;;;;;5052083;28;20465;-67
2022/08/29 03:17:35;;;;;;;6.67;2.90;;;15.90;98.00;;;;;;5051719;28;20469;-67
2022/08/29 03:20:04;;;;;;;4.53;2.90;;;15.90;98.00;;;;;;5051756;28;20463;-67
2022/08/29 03:22:34;;;;;;;3.27;2.40;;;15.90;98.00;;;;;;5051742;28;20468;-67
2022/08/29 03:25:02;;;;;;;6.17;3.00;;;15.80;98.00;;;;;;5054605;28;20461;-67
2022/08/29 03:27:30;;;;;;;3.53;2.70;;;15.70;98.00;;;;;;5055388;28;20508;-67
2022/08/29 03:29:58;;;;;;;3.77;2.60;;;15.80;98.00;;;;;;5055505;28;20484;-67
2022/08/29 03:32:25;;;;;;;13.23;2.50;;;15.80;98.00;;;;;;5038171;28;20478;-68
2022/08/29 03:34:53;;;;;;;4.43;2.77;;;15.90;98.00;;;;;;5055253;28;20582;-68
2022/08/29 03:37:21;;;;;;;3.80;2.93;;;15.80;98.00;;;;;;5055423;28;20450;-67
2022/08/29 03:39:49;;;;;;;3.57;3.00;;;15.70;98.00;;;;;;5055452;28;20464;-67
2022/08/29 03:42:17;;;;;;;6.40;3.03;;;15.60;98.00;;;;;;5037601;28;20468;-67
2022/08/29 03:44:44;;;;;;;4.30;2.70;;;15.50;98.00;;;;;;5037424;28;20458;-67
2022/08/29 03:47:11;;;;;;;4.90;2.80;;;15.50;98.00;;;;;;5055609;28;20449;-67
2022/08/29 03:49:38;;;;;;;5.43;2.97;;;15.40;98.00;;;;;;5055197;28;20465;-67
2022/08/29 03:52:08;;;;;;;5.53;3.03;;;15.40;98.00;;;;;;5055264;28;20950;-67
2022/08/29 03:54:35;;;;;;;4.63;2.70;;;15.30;98.00;;;;;;5055067;28;20495;-68
2022/08/29 03:57:04;;;;;;;3.00;2.20;;;15.40;98.00;;;;;;5055284;28;20488;-67
2022/08/29 03:59:32;;;;;;;4.43;2.70;;;15.30;98.00;;;;;;5055086;28;20962;-67
2022/08/29 04:01:59;;;;;;;3.30;2.47;;;15.30;98.00;;;;;;5037320;28;20947;-67
2022/08/29 04:07:13;;;;;;;4.07;2.63;;;15.30;98.00;;;;;;5055174;28;20441;-67
2022/08/29 04:09:41;;;;;;;3.80;2.67;;;15.40;98.00;;;;;;5054818;28;20507;-67
2022/08/29 04:12:11;;;;;;;4.90;3.10;;;15.50;98.00;;;;;;5055056;28;20464;-67
2022/08/29 04:14:38;;;;;;;3.50;2.60;;;15.50;98.00;;;;;;5054919;28;20833;-67
2022/08/29 04:17:05;;;;;;;4.33;2.70;;;15.50;98.00;;;;;;5020407;28;20952;-67
2022/08/29 04:19:34;;;;;;;7.93;2.93;;;15.50;98.00;;;;;;5054622;28;20971;-67
2022/08/29 04:22:01;;;;;;;6.60;2.73;;;15.40;98.00;;;;;;5054982;28;20464;-67
2022/08/29 04:24:30;;;;;;;4.80;2.80;;;15.40;98.00;;;;;;5055078;28;20461;-67
2022/08/29 04:26:57;;;;;;;4.27;2.77;;;15.30;98.00;;;;;;5055039;28;21119;-67
2022/08/29 04:29:26;;;;;;;4.43;2.97;;;15.20;98.00;;;;;;5054868;28;20464;-67
2022/08/29 04:31:53;;;;;;;6.10;3.30;;;15.30;98.00;;;;;;5054697;28;20541;-67
2022/08/29 04:34:21;;;;;;;4.23;2.70;;;15.30;98.00;;;;;;5054088;28;20489;-67
2022/08/29 04:36:48;;;;;;;3.97;2.73;;;15.30;98.00;;;;;;5053697;28;20946;-67
2022/08/29 04:39:16;;;;;;;5.67;3.10;;;15.20;98.00;;;;;;5054432;28;20471;-67
2022/08/29 04:41:49;;;;;;;5.70;2.93;;;15.20;98.00;;;;;;5054248;28;20465;-67
2022/08/29 04:44:17;;;;;;;4.70;2.80;;;15.20;98.00;;;;;;5054146;28;20475;-67
2022/08/29 04:46:45;;;;;;;4.93;3.10;;;15.20;98.00;;;;;;5054216;28;20462;-67
2022/08/29 04:49:13;;;;;;;4.30;2.80;;;15.20;98.00;;;;;;5053951;28;20461;-68
2022/08/29 04:51:40;;;;;;;3.47;2.87;;;15.30;98.00;;;;;;5036507;28;20453;-67
2022/08/29 04:54:08;;;;;;;4.27;3.00;;;15.40;98.00;;;;;;5036553;28;20548;-67
2022/08/29 04:56:37;;;;;;;4.60;3.00;;;15.50;98.00;;;;;;5053999;28;20819;-67
2022/08/29 04:59:04;;;;;;;4.33;2.80;;;15.60;98.00;;;;;;5053776;28;20826;-67
2022/08/29 05:01:33;;;;;;;5.10;3.10;;;15.80;98.00;;;;;;5036277;28;20460;-67
2022/08/29 05:04:01;;;;;;;4.67;3.00;;;16.00;98.00;;;;;;5053717;28;20461;-67
2022/08/29 05:06:28;;;;;;;4.77;2.93;;;16.10;98.00;;;;;;5054064;28;20961;-67
2022/08/29 05:08:55;;;;;;;3.70;2.67;;;16.20;98.00;;;;;;5053770;28;20487;-67
2022/08/29 05:11:22;;;;;;;5.63;3.00;;;16.20;98.00;;;;;;5053873;28;20548;-67
2022/08/29 05:13:51;;;;;;;4.37;2.77;;;16.20;98.00;;;;;;5053593;28;20516;-67
2022/08/29 05:16:18;;;;;;;4.50;2.93;;;16.30;98.00;;;;;;5053931;28;20944;-67
2022/08/29 05:18:46;;;;;;;7.30;3.30;;;16.20;98.00;;;;;;5053675;28;20472;-67
2022/08/29 05:21:25;;;;;;;6.60;3.27;;;16.40;98.00;;;;;;5053655;28;20508;-67
2022/08/29 05:23:53;;;;;;;6.20;3.57;;;16.40;98.00;;;;;;5020213;28;20464;-67
2022/08/29 05:26:20;;;;;;;4.30;3.10;;;16.40;98.00;;;;;;5053737;28;20932;-67
2022/08/29 05:28:50;;;;;;;6.80;3.07;;;16.50;98.00;;;;;;5053529;28;20962;-67
2022/08/29 05:31:17;;;;;;;3.93;2.80;;;16.60;98.00;;;;;;5035876;28;20507;-67
2022/08/29 05:33:45;;;;;;;5.57;3.27;;;16.40;98.00;;;;;;5035763;28;21017;-67
2022/08/29 05:36:13;;;;;;;4.40;3.13;;;16.40;98.00;;;;;;5053337;28;20468;-67
2022/08/29 05:38:42;;;;;;;3.70;2.87;;;16.40;98.00;;;;;;5036211;28;20805;-67
2022/08/29 05:41:10;;;;;;;5.83;2.77;;;16.40;98.00;;;;;;5053426;28;20487;-67
2022/08/29 05:43:37;;;;;;;4.87;3.10;;;16.50;98.00;;;;;;5053336;28;20967;-67
2022/08/29 05:46:08;;;;;;;4.70;2.30;;;16.50;98.00;;;;;;5053144;28;20453;-67
2022/08/29 05:48:39;;;;;;;5.17;3.00;;;16.40;98.00;;;;;;5034812;28;20464;-67
2022/08/29 05:51:08;;;;;;;5.90;3.00;;;16.50;98.00;;;;;;5053003;28;20823;-67
2022/08/29 05:53:36;;;;;;;3.83;2.87;;;16.60;98.00;;;;;;5052844;28;20464;-67
2022/08/29 05:56:04;;;;;;;4.30;2.97;;;16.50;98.00;;;;;;5052730;28;20955;-67
2022/08/29 05:58:32;;;;;;;4.27;2.70;;;16.50;98.00;;;;;;5035450;28;20940;-67
2022/08/29 06:01:01;;;;;;;6.43;3.57;;;16.40;98.00;;;;;;5035148;28;20450;-67
2022/08/29 06:03:28;;;;;;;3.67;2.70;;;16.30;98.00;;;;;;5052939;28;20453;-67
2022/08/29 06:05:55;;;;;;;6.30;2.77;;;16.20;98.00;;;;;;5034871;28;20468;-67
2022/08/29 06:08:22;;;;;;;4.40;2.57;;;16.20;98.00;;;;;;5052635;28;20468;-67
2022/08/29 06:10:51;;;;;;;6.30;3.33;;;16.10;98.00;;;;;;5052495;28;20449;-67
2022/08/29 06:13:19;;;;;;;10.03;3.67;;;16.10;98.00;;;;;;5052736;28;20475;-67
2022/08/29 06:15:47;;;;;;;4.20;2.80;;;16.30;98.00;;;;;;5052380;28;20580;-67
2022/08/29 06:18:16;;;;;;;4.23;2.93;;;16.30;98.00;;;;;;5052518;28;20458;-67
2022/08/29 06:20:47;;;;;;;5.17;2.87;;;16.40;98.00;;;;;;5034835;28;20458;-64
2022/08/29 06:23:15;;;;;;;7.83;3.20;;;16.40;98.00;;;;;;5052519;28;20450;-64
2022/08/29 06:25:43;;;;;;;6.50;2.80;;;16.40;98.00;;;;;;5052539;28;20457;-64
2022/08/29 06:28:12;;;;;;;5.47;3.00;;;16.40;98.00;;;;;;5051854;28;20771;-64
2022/08/29 06:30:39;;;;;;;5.67;3.03;;;16.50;98.00;;;;;;5052457;28;20457;-64
2022/08/29 06:33:07;;;;;;;5.10;3.20;;;16.60;98.00;;;;;;5034291;28;20476;-65
2022/08/29 06:35:34;;;;;;;5.30;3.27;;;16.80;98.00;;;;;;5052212;28;20492;-64
2022/08/29 06:38:01;;;;;;;5.13;2.93;;;17.00;98.00;;;;;;5052358;28;20518;-64
2022/08/29 06:40:28;;;;;;;4.83;3.30;;;17.00;98.00;;;;;;5052290;28;20488;-64
2022/08/29 06:42:56;;;;;;;5.53;3.63;;;17.10;98.00;;;;;;5052263;28;20464;-64
2022/08/29 06:45:24;;;;;;;5.63;2.70;;;17.20;98.00;;;;;;5052335;28;20446;-64
2022/08/29 06:47:51;;;;;;;5.30;3.30;;;17.30;98.00;;;;;;5052191;28;20932;-65
2022/08/29 06:50:19;;;;;;;4.53;3.40;;;17.40;98.00;;;;;;5034479;28;20458;-65
2022/08/29 06:52:46;;;;;;;3.83;2.63;;;17.50;98.00;;;;;;5052318;28;20462;-64
2022/08/29 06:55:13;;;;;;;5.87;3.30;;;17.50;98.00;;;;;;5052001;28;20489;-65
2022/08/29 06:57:43;;;;;;;7.10;3.50;;;17.60;98.00;;;;;;5052092;28;20466;-64
2022/08/29 07:00:12;;;;;;;6.40;3.23;;;17.70;98.00;;;;;;5051276;28;20457;-65
2022/08/29 07:02:40;;;;;;;5.90;3.37;;;17.70;98.00;;;;;;5051673;28;20508;-65
2022/08/29 07:05:08;;;;;;;6.40;3.63;;;18.00;98.00;;;;;;5051679;28;20449;-65
2022/08/29 07:07:35;;;;;;;6.17;2.90;;;17.90;98.00;;;;;;5041071;28;20486;-64
2022/08/29 07:10:06;;;;;;;5.10;2.70;;;17.90;98.00;;;;;;5031718;28;20462;-65
2022/08/29 07:12:34;;;;;;;6.43;3.80;;;18.00;98.00;;;;;;5031813;28;20854;-64
2022/08/29 07:15:02;;;;;;;6.63;3.80;;;18.10;98.00;;;;;;5014150;28;20482;-64
2022/08/29 07:17:29;;;;;;;5.60;3.30;;;18.20;98.00;;;;;;5031811;28;20703;-65
2022/08/29 07:20:00;;;;;;;4.17;2.87;;;18.30;98.00;;;;;;5031646;28;20469;-64
2022/08/29 07:22:27;;;;;;;4.60;3.10;;;18.40;98.00;;;;;;5031775;28;20462;-65
2022/08/29 07:24:55;;;;;;;5.23;3.30;;;18.60;98.00;;;;;;5013661;28;20473;-65
2022/08/29 07:27:25;;;;;;;6.60;3.30;;;18.70;98.00;;;;;;5031467;28;20450;-65
2022/08/29 07:29:52;;;;;;;4.63;2.87;;;18.90;98.00;;;;;;5031552;28;20459;-65
2022/08/29 07:32:19;;;;;;;5.73;3.50;;;18.90;98.00;;;;;;5014220;28;20921;-65
2022/08/29 07:34:47;;;;;;;5.40;2.87;;;19.10;98.00;;;;;;5029354;28;20499;-65
2022/08/29 07:37:15;;;;;;;3.97;3.03;;;19.10;98.00;;;;;;5031036;28;20966;-65
2022/08/29 07:39:43;;;;;;;5.13;3.40;;;19.10;98.00;;;;;;5040767;28;20454;-65
2022/08/29 07:42:10;;;;;;;6.27;3.30;;;19.10;98.00;;;;;;5033860;28;20462;-65
2022/08/29 07:44:38;;;;;;;5.07;2.77;;;19.30;98.00;;;;;;5037961;28;20480;-65
2022/08/29 07:47:05;;;;;;;5.60;3.77;;;19.40;98.00;;;;;;5048165;28;20457;-65
2022/08/29 07:49:32;;;;;;;6.33;3.20;;;19.50;98.00;;;;;;5017373;28;20463;-65
2022/08/29 07:52:00;;;;;;;6.10;3.60;;;19.60;98.00;;;;;;5039241;28;20469;-65
2022/08/29 07:54:29;;;;;;;3.50;2.60;;;19.70;98.00;;;;;;5038508;28;20531;-66
2022/08/29 07:56:58;;;;;;;8.57;3.83;;;19.80;98.00;;;;;;5031165;28;20459;-64
2022/08/29 07:59:25;;;;;;;5.93;2.83;;;20.00;98.00;;;;;;5021971;28;21010;-69
2022/08/29 08:01:58;;;;;;;5.20;2.73;;;20.30;98.00;;;;;;5047186;28;20465;-70
2022/08/29 08:04:26;;;;;;;4.57;3.23;;;20.60;98.00;;;;;;5021361;28;20451;-67
2022/08/29 08:06:53;;;;;;;4.10;3.03;;;20.90;98.00;;;;;;5021204;28;20457;-67
2022/08/29 08:09:20;;;;;;;7.23;3.20;;;21.10;98.00;;;;;;5045726;28;20465;-67
2022/08/29 08:11:49;;;;;;;7.47;4.30;;;21.20;98.00;;;;;;5023203;28;20458;-64
2022/08/29 08:14:16;;;;;;;5.73;3.03;;;21.30;98.00;;;;;;5042237;28;20464;-64
2022/08/29 08:16:45;;;;;;;4.70;3.50;;;21.40;98.00;;;;;;5040853;28;20571;-64
2022/08/29 08:19:13;;;;;;;6.57;3.53;;;21.50;98.00;;;;;;5048818;28;20465;-64
2022/08/29 08:21:40;;;;;;;7.23;3.73;;;21.50;98.00;;;;;;5041796;28;20465;-64
2022/08/29 08:24:08;;;;;;;6.60;3.77;;;21.60;98.00;;;;;;5041126;28;20469;-64
2022/08/29 08:26:36;;;;;;;4.63;3.03;;;21.70;98.00;;;;;;5042666;28;20475;-64
2022/08/29 08:29:05;;;;;;;9.60;4.10;;;21.70;98.00;;;;;;5008303;28;21012;-64
2022/08/29 08:31:32;;;;;;;6.27;3.10;;;21.80;98.00;;;;;;5050094;28;20460;-65
2022/08/29 08:33:59;;;;;;;4.17;2.97;;;22.00;98.00;;;;;;5040375;28;20461;-65
2022/08/29 08:36:29;;;;;;;5.17;3.07;;;22.10;98.00;;;;;;5051206;28;20489;-64
2022/08/29 08:38:58;;;;;;;5.00;3.07;;;22.00;98.00;;;;;;5024167;28;20457;-63
2022/08/29 08:41:40;;;;;;;5.00;3.10;;;22.10;98.00;;;;;;5048353;28;20465;-65
2022/08/29 08:44:30;;;;;;;5.40;3.60;;;22.30;98.00;;;;;;5041297;28;20461;-64
2022/08/29 08:47:00;;;;;;;5.63;3.37;;;22.40;98.00;;;;;;5031924;28;20456;-65
2022/08/29 08:49:38;;;;;;;7.00;3.97;;;22.40;98.00;;;;;;5040981;28;20462;-65
2022/08/29 08:52:12;;;;;;;6.27;3.20;;;22.50;98.00;;;;;;5000866;28;20472;-65
2022/08/29 08:54:49;;;;;;;5.70;3.60;;;22.60;98.00;;;;;;5034224;28;21004;-64
2022/08/29 08:57:17;;;;;;;6.40;3.93;;;22.60;98.00;;;;;;5033253;28;20457;-64
2022/08/29 08:59:49;;;;;;;4.77;2.90;;;22.80;98.00;;;;;;5034160;28;20467;-66
2022/08/29 09:02:33;;;;;;;3.60;2.60;;;22.90;98.00;;;;;;5034287;28;20469;-65
2022/08/29 09:05:18;;;;;;;4.20;3.10;;;23.10;98.00;;;;;;5034188;28;20455;-66
2022/08/29 09:07:59;;;;;;;5.60;3.80;;;23.40;98.00;;;;;;5034235;28;20478;-66
2022/08/29 09:10:36;;;;;;;7.83;3.63;;;23.60;98.00;;;;;;5034122;28;20455;-66
2022/08/29 09:13:17;;;;;;;10.20;3.50;;;23.80;98.00;;;;;;5034301;28;20462;-65
2022/08/29 09:15:50;;;;;;;8.77;3.60;;;23.90;98.00;;;;;;5000096;28;20483;-64
2022/08/29 09:18:27;;;;;;;6.00;3.37;;;24.00;98.00;;;;;;5034094;28;20455;-64
2022/08/29 09:20:55;;;;;;;7.00;4.17;;;24.20;98.00;;;;;;5033696;28;20462;-64
2022/08/29 09:23:28;;;;;;;7.73;3.50;;;24.20;98.00;;;;;;5033730;28;20545;-63
2022/08/29 09:25:56;;;;;;;5.13;3.30;;;24.50;98.00;;;;;;5033552;28;20478;-64
2022/08/29 09:28:24;;;;;;;5.67;3.40;;;24.60;98.00;;;;;;5033454;28;20462;-65
2022/08/29 09:31:24;;;;;;;5.63;3.07;;;24.70;98.00;;;;;;5033551;28;20516;-64
2022/08/29 09:33:54;;;;;;;5.60;2.90;;;24.90;98.00;;;;;;5026316;28;20544;-65
2022/08/29 09:36:44;;;;;;;4.80;3.13;;;24.90;98.00;;;;;;5033416;28;20483;-64
2022/08/29 09:39:14;;;;;;;4.67;3.10;;;25.10;98.00;;;;;;5027872;28;20463;-64
2022/08/29 09:41:43;;;;;;;4.83;3.50;;;25.20;98.00;;;;;;5033041;28;20459;-65
2022/08/29 09:44:14;;;;;;;7.87;3.83;;;25.40;98.00;;;;;;5032775;28;20459;-65
2022/08/29 09:46:43;;;;;;;5.43;3.90;;;25.50;98.00;;;;;;5032902;28;20450;-64
2022/08/29 09:49:13;;;;;;;5.50;3.10;;;25.70;98.00;;;;;;5032865;28;20466;-65
2022/08/29 09:51:42;;;;;;;4.33;3.03;;;25.80;98.00;;;;;;5032926;28;20558;-64
2022/08/29 09:54:25;;;;;;;5.00;3.20;;;26.00;98.00;;;;;;5032871;28;20477;-64
2022/08/29 09:56:55;;;;;;;5.90;3.43;;;26.10;96.70;;;;;;5032759;28;20532;-64
2022/08/29 09:59:28;;;;;;;5.20;3.10;;;26.10;96.50;;;;;;5032748;28;20455;-64
2022/08/29 10:02:23;;;;;;;4.20;2.57;;;26.20;96.00;;;;;;5032945;28;20462;-64
2022/08/29 10:04:53;;;;;;;5.90;3.33;;;26.30;97.00;;;;;;5032024;28;20537;-64
2022/08/29 10:07:23;;;;;;;5.17;2.90;;;26.40;95.20;;;;;;5033045;28;20459;-64
2022/08/29 10:10:01;;;;;;;3.60;2.60;;;26.50;95.70;;;;;;5032754;28;20470;-64
2022/08/29 10:12:40;;;;;;;4.63;3.07;;;26.60;96.40;;;;;;5033030;28;20461;-64
2022/08/29 10:15:19;;;;;;;3.47;2.77;;;26.80;96.00;;;;;;5032816;28;20501;-64
2022/08/29 10:20:52;;;;;;;5.53;3.27;;;27.10;94.00;;;;;;5032920;28;20469;-68
2022/08/29 10:23:26;;;;;;;4.87;3.20;;;27.40;93.50;;;;;;5032144;28;20458;-62
2022/08/29 10:25:54;;;;;;;8.00;3.53;;;27.40;94.20;;;;;;5032214;28;20461;-62
2022/08/29 10:28:31;;;;;;;5.37;3.20;;;27.60;94.10;;;;;;5032398;28;20538;-63
2022/08/29 10:31:04;;;;;;;4.47;3.30;;;27.80;93.10;;;;;;5032121;28;20525;-62
2022/08/29 10:33:53;;;;;;;7.23;3.20;;;28.00;91.50;;;;;;5031627;28;20496;-63
2022/08/29 10:36:26;;;;;;;4.40;3.13;;;28.10;91.10;;;;;;5032055;28;20486;-63
2022/08/29 10:39:00;;;;;;;4.50;3.27;;;28.20;90.70;;;;;;5031905;28;20493;-62
2022/08/29 10:41:33;;;;;;;4.30;3.20;;;28.30;91.40;;;;;;5032088;28;20457;-62
2022/08/29 10:44:10;;;;;;;6.17;3.33;;;28.40;90.80;;;;;;5031866;28;20465;-62
2022/08/29 10:46:54;;;;;;;4.50;3.13;;;28.50;91.40;;;;;;5032076;28;20458;-63
2022/08/29 10:49:35;;;;;;;11.13;3.10;;;28.50;90.20;;;;;;5014101;28;20458;-63
2022/08/29 10:52:13;;;;;;;5.43;2.80;;;28.60;88.10;;;;;;5032013;28;20485;-63
2022/08/29 10:54:50;;;;;;;5.00;2.90;;;28.80;88.80;;;;;;5014150;28;20462;-64
2022/08/29 10:57:29;;;;;;;4.77;2.97;;;29.00;86.50;;;;;;5031802;28;20482;-63
2022/08/29 11:00:02;;;;;;;4.67;3.37;;;29.00;85.30;;;;;;5031816;28;20454;-65
2022/08/29 11:02:36;;;;;;;5.53;3.33;;;29.20;86.30;;;;;;5032394;28;20455;-65
2022/08/29 11:05:11;;;;;;;5.20;3.40;;;29.10;88.20;;;;;;5032303;28;20459;-64
2022/08/29 11:07:47;;;;;;;4.53;2.90;;;28.90;88.00;;;;;;5031997;28;20454;-66
2022/08/29 11:10:17;;;;;;;4.80;3.10;;;28.60;87.90;;;;;;5032003;28;20467;-65
2022/08/29 11:12:50;;;;;;;5.03;3.67;;;28.50;89.20;;;;;;5031859;28;20465;-65
2022/08/29 11:15:24;;;;;;;4.97;3.13;;;28.70;91.10;;;;;;4998025;28;20463;-68
2022/08/29 11:17:58;;;;;;;7.87;3.37;;;28.70;90.80;;;;;;5031987;28;20490;-65
2022/08/29 11:20:32;;;;;;;4.70;3.23;;;28.40;90.70;;;;;;5032379;28;20449;-67
2022/08/29 11:23:05;;;;;;;5.40;2.80;;;28.30;90.50;;;;;;5031715;28;20470;-69
2022/08/29 11:25:35;;;;;;;5.67;3.13;;;28.20;90.40;;;;;;5031607;28;20461;-68
2022/08/29 11:28:10;;;;;;;4.83;2.80;;;28.40;88.60;;;;;;5031786;28;20463;-67
2022/08/29 11:30:46;;;;;;;5.17;3.40;;;28.80;87.30;;;;;;5031586;28;20494;-68
2022/08/29 11:33:23;;;;;;;4.50;2.87;;;29.30;85.70;;;;;;5031449;28;20474;-67
2022/08/29 11:36:06;;;;;;;3.43;2.60;;;29.70;86.10;;;;;;5031475;28;20482;-67
2022/08/29 11:38:53;;;;;;;4.57;2.90;;;30.20;84.50;;;;;;5031308;28;20470;-65
2022/08/29 11:41:25;;;;;;;5.47;3.30;;;30.50;83.00;;;;;;5031600;28;21128;-64
2022/08/29 11:43:56;;;;;;;3.67;2.83;;;30.60;83.50;;;;;;5031381;28;20463;-68
2022/08/29 11:46:40;;;;;;;4.00;2.80;;;30.70;81.00;;;;;;5035121;28;20473;-70
2022/08/29 11:49:34;;;;;;;4.97;3.20;;;31.00;82.50;;;;;;5035406;28;20454;-70
2022/08/29 11:52:17;;;;;;;3.90;2.80;;;31.20;80.70;;;;;;5035392;28;20450;-71
2022/08/29 11:55:08;;;;;;;4.93;2.80;;;31.30;81.90;;;;;;5035337;28;20457;-68
2022/08/29 11:57:52;;;;;;;4.87;3.30;;;31.50;80.60;;;;;;5035308;28;20522;-72
2022/08/29 12:00:39;;;;;;;4.20;2.93;;;31.60;79.80;;;;;;5035261;28;20937;-68
2022/08/29 12:03:53;;;;;;;5.10;3.20;;;31.70;79.20;;;;;;5035402;28;20458;-70
2022/08/29 12:06:56;;;;;;;5.90;3.57;;;31.80;76.80;;;;;;5035491;28;20454;-70
2022/08/29 12:09:44;;;;;;;4.30;2.60;;;32.00;76.60;;;;;;5026894;28;20466;-69
2022/08/29 12:12:18;;;;;;;6.93;2.93;;;31.90;75.10;;;;;;5035172;28;20462;-68
2022/08/29 12:14:47;;;;;;;7.17;2.73;;;31.90;75.70;;;;;;5035159;28;20462;-69
2022/08/29 12:17:43;;;;;;;4.60;3.27;;;32.20;75.20;;;;;;5017638;28;20489;-73
2022/08/29 12:20:34;;;;;;;3.80;2.90;;;32.30;76.20;;;;;;5035065;28;20466;-70
2022/08/29 12:23:05;;;;;;;4.43;2.90;;;32.40;77.00;;;;;;5034990;28;20459;-70
2022/08/29 12:25:45;;;;;;;3.77;2.90;;;32.50;76.00;;;;;;5034888;28;20466;-69
2022/08/29 12:28:37;;;;;;;5.03;2.97;;;32.60;75.90;;;;;;5017445;28;20462;-73
2022/08/29 12:31:41;;;;;;;6.53;3.13;;;32.90;75.40;;;;;;5029637;28;20489;-68
2022/08/29 12:34:24;;;;;;;5.23;3.23;;;32.90;73.20;;;;;;5010409;28;21144;-69
2022/08/29 12:37:29;;;;;;;3.70;2.47;;;33.00;73.90;;;;;;5034211;28;20482;-69
2022/08/29 12:40:17;;;;;;;5.87;3.07;;;33.00;73.30;;;;;;5034348;28;20463;-66
2022/08/29 12:42:56;;;;;;;3.87;2.60;;;32.80;73.70;;;;;;5013782;28;20879;-66
2022/08/29 12:45:27;;;;;;;4.43;2.73;;;32.70;75.20;;;;;;5034237;28;20465;-62
2022/08/29 12:47:57;;;;;;;4.57;2.80;;;32.60;74.40;;;;;;5034280;28;20455;-64
2022/08/29 12:50:31;;;;;;;6.50;3.57;;;32.70;74.10;;;;;;5034086;28;20465;-64
2022/08/29 12:53:01;;;;;;;3.47;2.40;;;32.80;73.60;;;;;;5033829;28;20454;-67
2022/08/29 12:55:34;;;;;;;4.73;3.20;;;32.70;76.00;;;;;;5033595;28;20462;-65
2022/08/29 12:58:02;;;;;;;3.73;2.87;;;32.10;75.90;;;;;;5032869;28;20462;-67
2022/08/29 13:00:33;;;;;;;3.97;3.00;;;31.80;75.30;;;;;;5033460;28;20454;-63
2022/08/29 13:03:03;;;;;;;3.80;2.60;;;31.70;77.70;;;;;;5016036;28;20451;-63
2022/08/29 13:05:32;;;;;;;4.80;2.97;;;31.40;76.40;;;;;;5033339;28;20613;-63
2022/08/29 13:08:01;;;;;;;3.43;2.77;;;31.10;78.40;;;;;;5033362;28;20458;-63
2022/08/29 13:10:29;;;;;;;5.07;3.20;;;30.70;77.60;;;;;;5033615;28;20458;-63
2022/08/29 13:13:07;;;;;;;4.10;3.00;;;30.50;80.00;;;;;;5033340;28;20454;-64
2022/08/29 13:15:34;;;;;;;3.87;2.70;;;30.50;79.80;;;;;;5031960;28;20473;-63